Home   Weather   Portugal   Portimão   Past weeks
Flag for Portugal

Past Weather in Portimão, Faro, Portugal — Yesterday and Last 2 Weeks

Currently: 75 °F. Clear. (Weather station: Faro / Aeroporto, Portugal). See more current weather

Past Weather in Portimão — Graph

°F

Portimão Temperature Yesterday

Maximum temperature yesterday: 90 °F (at 1:30 pm)
Minimum temperature yesterday: 70 °F (at 12:00 am)
Average temperature yesterday: 80 °F

High & Low Weather Summary for the Past Weeks

 TemperatureHumidityPressure
High91 °F (Jul 11, 10:30 am)88% (Jul 10, 5:00 am)30.09 "Hg (Jul 10, 5:00 am)
Low61 °F (Jul 14, 5:00 am)23% (Jul 14, 12:30 am)29.83 "Hg (Jul 13, 7:30 pm)
Average75 °F60%29.98 "Hg
* Reported Jul 9 3:00 am — Jul 24 3:30 am, Portimão. Weather by CustomWeather, © 2024

Note: Actual official high and low records may vary slightly from our data, if they occured in-between our weather recording intervals... More about our weather records

Portimão Weather History for the Previous 24 Hours

Scroll right to see more
 ConditionsComfort  
Time TempWeatherWind HumidityBarometerVisibility
3:30 am
Wed, Jul 24
75 °FClear.1 mph57%30.01 "Hg10 mi
3:00 am73 °FClear.2 mph69%30.01 "Hg10 mi
2:30 am75 °FClear.No wind65%30.01 "Hg10 mi
2:00 am75 °FPassing clouds.3 mph74%30.01 "HgN/A
1:30 am72 °FClear.No wind83%30.04 "Hg10 mi
1:00 am72 °FClear.3 mph83%30.04 "Hg10 mi
12:30 am72 °FClear.2 mph83%30.04 "Hg10 mi
12:00 am72 °FClear.2 mph78%30.04 "Hg10 mi
11:00 pm
Tue, Jul 23
73 °FClear.6 mph74%30.04 "Hg10 mi
10:30 pm75 °FClear.7 mph69%30.04 "Hg10 mi
10:00 pm81 °FClear.7 mph51%30.04 "Hg10 mi
9:30 pm77 °FClear.10 mph65%30.04 "Hg10 mi
9:00 pm79 °FClear.10 mph58%30.01 "Hg10 mi
8:00 pm79 °FSunny.10 mph61%30.01 "Hg10 mi
7:30 pm82 °FSunny.8 mph55%30.01 "Hg10 mi
7:00 pm82 °FSunny.9 mph55%30.01 "Hg10 mi
6:30 pm82 °FSunny.9 mph55%30.01 "Hg10 mi
6:00 pm86 °FSunny.5 mph46%30.01 "Hg10 mi
5:30 pm86 °FSunny.6 mph46%30.04 "Hg10 mi
5:00 pm88 °FSunny.7 mph40%30.04 "Hg10 mi
4:30 pm88 °FSunny.8 mph38%30.04 "Hg10 mi
4:00 pm88 °FSunny.9 mph38%30.04 "Hg10 mi
3:00 pm88 °FSunny.12 mph40%30.04 "Hg10 mi
2:30 pm90 °FSunny.13 mph36%30.04 "Hg10 mi
1:30 pm90 °FSunny.12 mph38%30.07 "Hg10 mi
1:00 pm88 °FSunny.13 mph46%30.07 "Hg10 mi
12:30 pm88 °FSunny.13 mph43%30.07 "Hg10 mi
12:00 pm88 °FSunny.14 mph38%30.07 "Hg10 mi
11:30 am86 °FSunny.12 mph43%30.07 "Hg10 mi
11:00 am86 °FSunny.12 mph46%30.07 "Hg10 mi
10:30 am86 °FSunny.10 mph49%30.04 "Hg10 mi
10:00 am84 °FPassing clouds.9 mph48%30.04 "HgN/A
9:30 am84 °FSunny.8 mph51%30.04 "Hg10 mi
9:00 am81 °FPassing clouds.3 mph62%30.04 "HgN/A
8:00 am79 °FSunny.6 mph65%30.04 "Hg10 mi
7:30 am77 °FSunny.7 mph65%30.04 "Hg10 mi
7:00 am75 °FPassing clouds.5 mph69%30.01 "HgN/A
6:30 am75 °FPassing clouds.6 mph65%30.01 "HgN/A
6:00 am75 °FClear.6 mph69%30.01 "Hg10 mi
5:30 am75 °FClear.7 mph69%30.01 "Hg10 mi
5:00 am77 °FClear.6 mph65%30.01 "Hg10 mi
Weather by CustomWeather, © 2024

See weather overview